sensor_id;sensor_type;location;lat;lon;timestamp;pressure;altitude;pressure_sealevel;temperature;humidity
32933;BME280;19444;50.518;10.870;2022-09-13T00:02:35;96277.72;;;10.04;100.00
32933;BME280;19444;50.518;10.870;2022-09-13T00:05:32;96271.06;;;9.92;100.00
32933;BME280;19444;50.518;10.870;2022-09-13T00:08:28;96260.25;;;9.97;100.00
32933;BME280;19444;50.518;10.870;2022-09-13T00:11:29;96261.56;;;10.17;100.00
32933;BME280;19444;50.518;10.870;2022-09-13T00:14:26;96271.53;;;10.25;100.00
32933;BME280;19444;50.518;10.870;2022-09-13T00:17:25;96273.44;;;9.94;100.00
32933;BME280;19444;50.518;10.870;2022-09-13T00:20:22;96275.06;;;9.73;100.00
32933;BME280;19444;50.518;10.870;2022-09-13T00:23:19;96267.53;;;9.75;100.00
32933;BME280;19444;50.518;10.870;2022-09-13T00:26:23;96271.47;;;9.77;100.00
32933;BME280;19444;50.518;10.870;2022-09-13T00:29:20;96273.28;;;9.90;100.00
32933;BME280;19444;50.518;10.870;2022-09-13T00:32:17;96267.16;;;9.98;100.00
32933;BME280;19444;50.518;10.870;2022-09-13T00:35:14;96273.38;;;10.16;100.00
32933;BME280;19444;50.518;10.870;2022-09-13T00:38:11;96279.41;;;9.91;100.00
32933;BME280;19444;50.518;10.870;2022-09-13T00:41:14;96282.88;;;9.60;100.00
32933;BME280;19444;50.518;10.870;2022-09-13T00:44:55;96294.38;;;9.61;100.00
32933;BME280;19444;50.518;10.870;2022-09-13T00:48:01;96281.63;;;9.66;100.00
32933;BME280;19444;50.518;10.870;2022-09-13T00:51:01;96277.69;;;9.95;100.00
32933;BME280;19444;50.518;10.870;2022-09-13T00:54:00;96273.44;;;9.94;100.00
32933;BME280;19444;50.518;10.870;2022-09-13T00:57:01;96264.88;;;9.52;100.00
32933;BME280;19444;50.518;10.870;2022-09-13T01:00:10;96246.66;;;9.54;100.00
32933;BME280;19444;50.518;10.870;2022-09-13T01:03:11;96241.34;;;9.63;100.00
32933;BME280;19444;50.518;10.870;2022-09-13T01:06:13;96235.72;;;9.73;100.00
32933;BME280;19444;50.518;10.870;2022-09-13T01:09:11;96232.47;;;9.85;100.00
32933;BME280;19444;50.518;10.870;2022-09-13T01:15:34;96224.63;;;9.57;100.00
32933;BME280;19444;50.518;10.870;2022-09-13T01:18:30;96226.88;;;9.64;100.00
32933;BME280;19444;50.518;10.870;2022-09-13T01:22:01;96237.25;;;9.65;100.00
32933;BME280;19444;50.518;10.870;2022-09-13T01:32:42;96238.72;;;9.49;100.00
32933;BME280;19444;50.518;10.870;2022-09-13T01:36:09;96223.47;;;9.50;100.00
32933;BME280;19444;50.518;10.870;2022-09-13T01:39:20;96215.66;;;9.53;100.00
32933;BME280;19444;50.518;10.870;2022-09-13T01:43:02;96213.41;;;9.47;100.00
32933;BME280;19444;50.518;10.870;2022-09-13T01:46:25;96203.91;;;9.09;100.00
32933;BME280;19444;50.518;10.870;2022-09-13T01:52:55;96207.69;;;9.39;100.00
32933;BME280;19444;50.518;10.870;2022-09-13T01:56:26;96190.28;;;9.51;100.00
32933;BME280;19444;50.518;10.870;2022-09-13T01:59:53;96190.28;;;9.51;100.00
32933;BME280;19444;50.518;10.870;2022-09-13T02:03:17;96188.84;;;9.45;100.00
32933;BME280;19444;50.518;10.870;2022-09-13T02:06:26;96177.38;;;9.44;100.00
32933;BME280;19444;50.518;10.870;2022-09-13T02:09:26;96177.00;;;9.37;100.00
32933;BME280;19444;50.518;10.870;2022-09-13T02:12:28;96181.41;;;9.41;100.00
32933;BME280;19444;50.518;10.870;2022-09-13T02:15:35;96176.69;;;9.69;100.00
32933;BME280;19444;50.518;10.870;2022-09-13T02:18:45;96178.31;;;9.48;100.00
32933;BME280;19444;50.518;10.870;2022-09-13T02:21:46;96162.06;;;9.36;100.00
32933;BME280;19444;50.518;10.870;2022-09-13T02:24:50;96164.16;;;9.17;100.00
32933;BME280;19444;50.518;10.870;2022-09-13T02:27:51;96158.59;;;9.35;100.00
32933;BME280;19444;50.518;10.870;2022-09-13T02:30:52;96163.47;;;9.33;100.00
32933;BME280;19444;50.518;10.870;2022-09-13T02:33:58;96160.34;;;9.09;100.00
32933;BME280;19444;50.518;10.870;2022-09-13T02:36:58;96163.47;;;9.33;100.00
32933;BME280;19444;50.518;10.870;2022-09-13T02:40:03;96154.16;;;9.31;100.00
32933;BME280;19444;50.518;10.870;2022-09-13T02:43:10;96157.97;;;9.38;100.00
32933;BME280;19444;50.518;10.870;2022-09-13T02:46:39;96152.31;;;9.40;100.00
32933;BME280;19444;50.518;10.870;2022-09-13T02:49:57;96156.41;;;9.37;100.00
32933;BME280;19444;50.518;10.870;2022-09-13T02:53:41;96169.50;;;9.17;100.00
32933;BME280;19444;50.518;10.870;2022-09-13T02:56:53;96165.75;;;9.18;100.00
32933;BME280;19444;50.518;10.870;2022-09-13T02:59:52;96173.53;;;9.05;100.00
32933;BME280;19444;50.518;10.870;2022-09-13T03:02:50;96165.47;;;8.97;100.00
32933;BME280;19444;50.518;10.870;2022-09-13T03:05:48;96169.09;;;9.01;100.00
32933;BME280;19444;50.518;10.870;2022-09-13T03:08:45;96174.41;;;9.23;100.00
32933;BME280;19444;50.518;10.870;2022-09-13T03:16:14;96176.50;;;9.04;100.00
32933;BME280;19444;50.518;10.870;2022-09-13T03:19:44;96180.81;;;8.91;100.00
32933;BME280;19444;50.518;10.870;2022-09-13T03:30:01;96172.69;;;8.96;100.00
32933;BME280;19444;50.518;10.870;2022-09-13T03:33:25;96162.50;;;8.98;100.00
32933;BME280;19444;50.518;10.870;2022-09-13T03:36:32;96164.69;;;8.96;100.00
32933;BME280;19444;50.518;10.870;2022-09-13T03:39:44;96164.72;;;8.82;100.00
32933;BME280;19444;50.518;10.870;2022-09-13T03:42:49;96159.69;;;8.81;100.00
32933;BME280;19444;50.518;10.870;2022-09-13T03:45:55;96148.75;;;8.91;100.00
32933;BME280;19444;50.518;10.870;2022-09-13T03:48:54;96155.78;;;9.09;100.00
32933;BME280;19444;50.518;10.870;2022-09-13T03:51:52;96148.63;;;8.74;100.00
32933;BME280;19444;50.518;10.870;2022-09-13T03:54:51;96160.41;;;8.95;100.00
32933;BME280;19444;50.518;10.870;2022-09-13T03:57:49;96165.69;;;8.87;100.00
32933;BME280;19444;50.518;10.870;2022-09-13T04:00:46;96167.03;;;8.98;100.00
32933;BME280;19444;50.518;10.870;2022-09-13T04:03:44;96172.44;;;8.84;100.00
32933;BME280;19444;50.518;10.870;2022-09-13T04:06:40;96162.09;;;9.13;100.00
32933;BME280;19444;50.518;10.870;2022-09-13T04:09:37;96169.03;;;9.15;100.00
32933;BME280;19444;50.518;10.870;2022-09-13T04:12:35;96189.81;;;8.95;100.00
32933;BME280;19444;50.518;10.870;2022-09-13T04:15:32;96185.44;;;8.77;100.00
32933;BME280;19444;50.518;10.870;2022-09-13T04:18:30;96191.63;;;8.86;100.00
32933;BME280;19444;50.518;10.870;2022-09-13T04:21:27;96187.38;;;8.85;100.00
32933;BME280;19444;50.518;10.870;2022-09-13T04:24:26;96188.94;;;8.86;100.00
32933;BME280;19444;50.518;10.870;2022-09-13T04:27:23;96185.13;;;9.01;100.00
32933;BME280;19444;50.518;10.870;2022-09-13T04:30:21;96179.16;;;9.04;100.00
32933;BME280;19444;50.518;10.870;2022-09-13T04:33:19;96181.44;;;8.88;100.00
32933;BME280;19444;50.518;10.870;2022-09-13T04:36:15;96179.31;;;8.99;100.00
32933;BME280;19444;50.518;10.870;2022-09-13T04:39:13;96179.41;;;8.94;100.00
32933;BME280;19444;50.518;10.870;2022-09-13T04:42:10;96180.81;;;8.91;100.00
32933;BME280;19444;50.518;10.870;2022-09-13T04:45:08;96178.44;;;9.12;100.00
32933;BME280;19444;50.518;10.870;2022-09-13T04:48:05;96170.63;;;9.16;100.00
32933;BME280;19444;50.518;10.870;2022-09-13T04:51:03;96174.25;;;9.20;100.00
32933;BME280;19444;50.518;10.870;2022-09-13T04:54:00;96170.94;;;9.23;100.00
32933;BME280;19444;50.518;10.870;2022-09-13T04:56:57;96165.69;;;9.40;100.00
32933;BME280;19444;50.518;10.870;2022-09-13T04:59:54;96170.88;;;9.36;100.00
32933;BME280;19444;50.518;10.870;2022-09-13T05:02:55;96173.63;;;9.54;100.00
32933;BME280;19444;50.518;10.870;2022-09-13T05:05:52;96166.50;;;9.49;100.00
32933;BME280;19444;50.518;10.870;2022-09-13T05:08:54;96164.53;;;9.32;100.00
32933;BME280;19444;50.518;10.870;2022-09-13T05:11:51;96165.88;;;9.44;100.00
32933;BME280;19444;50.518;10.870;2022-09-13T05:14:48;96165.59;;;9.54;100.00
32933;BME280;19444;50.518;10.870;2022-09-13T05:17:44;96168.28;;;9.54;100.00
32933;BME280;19444;50.518;10.870;2022-09-13T05:20:41;96156.31;;;9.51;100.00
32933;BME280;19444;50.518;10.870;2022-09-13T05:23:38;96160.09;;;9.59;100.00
32933;BME280;19444;50.518;10.870;2022-09-13T05:26:35;96151.03;;;9.77;100.00
32933;BME280;19444;50.518;10.870;2022-09-13T05:29:32;96153.13;;;9.80;100.00
32933;BME280;19444;50.518;10.870;2022-09-13T05:32:30;96164.56;;;9.72;100.00
32933;BME280;19444;50.518;10.870;2022-09-13T05:35:27;96163.38;;;9.95;100.00
32933;BME280;19444;50.518;10.870;2022-09-13T05:38:25;96182.75;;;10.01;100.00
32933;BME280;19444;50.518;10.870;2022-09-13T05:41:22;96187.97;;;10.15;100.00
32933;BME280;19444;50.518;10.870;2022-09-13T05:44:19;96179.22;;;10.23;100.00
32933;BME280;19444;50.518;10.870;2022-09-13T05:47:15;96175.44;;;10.33;100.00
32933;BME280;19444;50.518;10.870;2022-09-13T05:50:12;96181.59;;;10.42;100.00
32933;BME280;19444;50.518;10.870;2022-09-13T05:53:29;96176.56;;;10.49;100.00
32933;BME280;19444;50.518;10.870;2022-09-13T05:56:28;96182.56;;;10.54;100.00
32933;BME280;19444;50.518;10.870;2022-09-13T05:59:25;96184.16;;;10.64;100.00
32933;BME280;19444;50.518;10.870;2022-09-13T06:02:22;96185.72;;;10.65;100.00
32933;BME280;19444;50.518;10.870;2022-09-13T06:05:19;96176.25;;;10.59;100.00
32933;BME280;19444;50.518;10.870;2022-09-13T06:08:16;96172.16;;;10.53;100.00
32933;BME280;19444;50.518;10.870;2022-09-13T06:11:14;96171.06;;;10.54;100.00
32933;BME280;19444;50.518;10.870;2022-09-13T06:14:11;96153.56;;;10.82;100.00
32933;BME280;19444;50.518;10.870;2022-09-13T06:17:08;96151.66;;;10.74;100.00
32933;BME280;19444;50.518;10.870;2022-09-13T06:20:05;96160.97;;;10.77;100.00
32933;BME280;19444;50.518;10.870;2022-09-13T06:23:02;96159.22;;;10.90;100.00
32933;BME280;19444;50.518;10.870;2022-09-13T06:26:26;96160.81;;;10.91;100.00
32933;BME280;19444;50.518;10.870;2022-09-13T06:29:23;96152.75;;;10.91;100.00
32933;BME280;19444;50.518;10.870;2022-09-13T06:32:23;96160.94;;;11.03;100.00
32933;BME280;19444;50.518;10.870;2022-09-13T06:35:20;96158.25;;;11.03;100.00
32933;BME280;19444;50.518;10.870;2022-09-13T06:38:17;96147.16;;;11.22;100.00
32933;BME280;19444;50.518;10.870;2022-09-13T06:41:17;96161.38;;;11.22;100.00
32933;BME280;19444;50.518;10.870;2022-09-13T06:44:14;96152.38;;;11.18;100.00
32933;BME280;19444;50.518;10.870;2022-09-13T06:47:11;96154.63;;;11.16;100.00
32933;BME280;19444;50.518;10.870;2022-09-13T06:50:09;96161.81;;;11.24;100.00
32933;BME280;19444;50.518;10.870;2022-09-13T06:53:05;96156.47;;;11.24;100.00
32933;BME280;19444;50.518;10.870;2022-09-13T06:56:14;96153.63;;;11.29;100.00
32933;BME280;19444;50.518;10.870;2022-09-13T06:59:11;96155.97;;;11.31;100.00
32933;BME280;19444;50.518;10.870;2022-09-13T07:02:09;96155.50;;;11.37;100.00
32933;BME280;19444;50.518;10.870;2022-09-13T07:05:07;96156.47;;;11.24;100.00
32933;BME280;19444;50.518;10.870;2022-09-13T07:08:04;96156.44;;;11.33;100.00
32933;BME280;19444;50.518;10.870;2022-09-13T07:11:00;96167.59;;;11.52;100.00
32933;BME280;19444;50.518;10.870;2022-09-13T07:14:01;96155.41;;;11.63;100.00
32933;BME280;19444;50.518;10.870;2022-09-13T07:16:58;96152.00;;;11.46;100.00
32933;BME280;19444;50.518;10.870;2022-09-13T07:19:55;96155.94;;;11.39;100.00
32933;BME280;19444;50.518;10.870;2022-09-13T07:22:52;96153.91;;;11.45;100.00
32933;BME280;19444;50.518;10.870;2022-09-13T07:25:54;96156.78;;;11.69;100.00
32933;BME280;19444;50.518;10.870;2022-09-13T07:28:54;96159.75;;;11.77;100.00
32933;BME280;19444;50.518;10.870;2022-09-13T07:31:53;96184.28;;;11.66;100.00
32933;BME280;19444;50.518;10.870;2022-09-13T07:34:50;96185.34;;;11.74;100.00
32933;BME280;19444;50.518;10.870;2022-09-13T07:37:47;96182.47;;;11.79;100.00
32933;BME280;19444;50.518;10.870;2022-09-13T07:40:55;96184.09;;;11.72;100.00
32933;BME280;19444;50.518;10.870;2022-09-13T07:43:54;96195.72;;;11.93;100.00
32933;BME280;19444;50.518;10.870;2022-09-13T07:46:51;96172.19;;;11.99;100.00
32933;BME280;19444;50.518;10.870;2022-09-13T07:49:48;96171.59;;;12.14;100.00
32933;BME280;19444;50.518;10.870;2022-09-13T07:52:46;96167.34;;;12.13;100.00
32933;BME280;19444;50.518;10.870;2022-09-13T07:55:43;96181.72;;;12.17;100.00
32933;BME280;19444;50.518;10.870;2022-09-13T07:58:42;96179.28;;;12.24;100.00
32933;BME280;19444;50.518;10.870;2022-09-13T08:01:42;96175.75;;;12.32;100.00
32933;BME280;19444;50.518;10.870;2022-09-13T08:04:39;96164.94;;;12.41;100.00
32933;BME280;19444;50.518;10.870;2022-09-13T08:07:36;96163.44;;;12.52;100.00
32933;BME280;19444;50.518;10.870;2022-09-13T08:10:36;96161.16;;;12.63;100.00
32933;BME280;19444;50.518;10.870;2022-09-13T08:13:33;96175.56;;;12.58;100.00
32933;BME280;19444;50.518;10.870;2022-09-13T08:16:30;96156.88;;;12.62;100.00
32933;BME280;19444;50.518;10.870;2022-09-13T08:19:27;96158.19;;;12.76;100.00
32933;BME280;19444;50.518;10.870;2022-09-13T08:22:24;96161.28;;;12.66;100.00
32933;BME280;19444;50.518;10.870;2022-09-13T08:25:20;96167.81;;;12.77;100.00
32933;BME280;19444;50.518;10.870;2022-09-13T08:28:20;96173.72;;;12.71;100.00
32933;BME280;19444;50.518;10.870;2022-09-13T08:31:25;96190.19;;;12.69;100.00
32933;BME280;19444;50.518;10.870;2022-09-13T08:34:22;96190.75;;;13.17;100.00
32933;BME280;19444;50.518;10.870;2022-09-13T08:37:19;96187.78;;;13.30;100.00
32933;BME280;19444;50.518;10.870;2022-09-13T08:40:15;96180.91;;;13.54;100.00
32933;BME280;19444;50.518;10.870;2022-09-13T08:46:46;96179.59;;;13.72;100.00
32933;BME280;19444;50.518;10.870;2022-09-13T08:49:49;96174.41;;;13.79;100.00
32933;BME280;19444;50.518;10.870;2022-09-13T08:53:03;96169.25;;;13.74;100.00
32933;BME280;19444;50.518;10.870;2022-09-13T08:56:11;96164.00;;;13.90;100.00
32933;BME280;19444;50.518;10.870;2022-09-13T09:06:24;96144.88;;;14.19;100.00
32933;BME280;19444;50.518;10.870;2022-09-13T09:09:21;96131.38;;;14.32;100.00
32933;BME280;19444;50.518;10.870;2022-09-13T09:12:49;96125.44;;;14.38;100.00
32933;BME280;19444;50.518;10.870;2022-09-13T09:15:56;96133.75;;;14.45;100.00
32933;BME280;19444;50.518;10.870;2022-09-13T09:19:00;96129.16;;;14.46;100.00
32933;BME280;19444;50.518;10.870;2022-09-13T09:22:04;96136.66;;;14.40;100.00
32933;BME280;19444;50.518;10.870;2022-09-13T09:25:03;96132.31;;;14.76;100.00
32933;BME280;19444;50.518;10.870;2022-09-13T09:28:00;96115.34;;;14.75;100.00
32933;BME280;19444;50.518;10.870;2022-09-13T09:31:15;96121.38;;;14.85;100.00
32933;BME280;19444;50.518;10.870;2022-09-13T09:37:29;96094.28;;;15.09;100.00
32933;BME280;19444;50.518;10.870;2022-09-13T09:40:27;96086.41;;;15.04;100.00
32933;BME280;19444;50.518;10.870;2022-09-13T09:43:44;96090.25;;;15.03;100.00
32933;BME280;19444;50.518;10.870;2022-09-13T09:46:44;96092.84;;;14.99;100.00
32933;BME280;19444;50.518;10.870;2022-09-13T09:53:12;96083.41;;;15.37;100.00
32933;BME280;19444;50.518;10.870;2022-09-13T09:56:25;96089.50;;;15.50;100.00
32933;BME280;19444;50.518;10.870;2022-09-13T09:59:31;96081.25;;;15.74;100.00
32933;BME280;19444;50.518;10.870;2022-09-13T10:02:29;96078.44;;;15.71;100.00
32933;BME280;19444;50.518;10.870;2022-09-13T10:05:26;96072.66;;;16.04;100.00
32933;BME280;19444;50.518;10.870;2022-09-13T10:08:33;96070.16;;;16.14;100.00
32933;BME280;19444;50.518;10.870;2022-09-13T10:11:58;96068.19;;;16.11;100.00
32933;BME280;19444;50.518;10.870;2022-09-13T10:15:18;96073.19;;;15.93;100.00
32933;BME280;19444;50.518;10.870;2022-09-13T10:18:16;96082.09;;;15.94;100.00
32933;BME280;19444;50.518;10.870;2022-09-13T10:21:33;96073.31;;;16.36;100.00
32933;BME280;19444;50.518;10.870;2022-09-13T10:24:31;96063.94;;;16.49;100.00
32933;BME280;19444;50.518;10.870;2022-09-13T10:27:34;96062.09;;;16.72;100.00
32933;BME280;19444;50.518;10.870;2022-09-13T10:30:41;96068.34;;;17.19;100.00
32933;BME280;19444;50.518;10.870;2022-09-13T10:34:10;96058.97;;;17.58;100.00
32933;BME280;19444;50.518;10.870;2022-09-13T10:37:25;96051.66;;;17.13;100.00
32933;BME280;19444;50.518;10.870;2022-09-13T10:40:32;96057.28;;;17.50;100.00
32933;BME280;19444;50.518;10.870;2022-09-13T10:43:31;96048.00;;;18.01;100.00
32933;BME280;19444;50.518;10.870;2022-09-13T10:46:38;96051.69;;;18.45;100.00
32933;BME280;19444;50.518;10.870;2022-09-13T10:49:49;96058.91;;;18.34;100.00
32933;BME280;19444;50.518;10.870;2022-09-13T10:52:53;96053.66;;;18.79;100.00
32933;BME280;19444;50.518;10.870;2022-09-13T10:55:53;96050.91;;;18.75;100.00
32933;BME280;19444;50.518;10.870;2022-09-13T11:12:45;96048.81;;;18.95;100.00
32933;BME280;19444;50.518;10.870;2022-09-13T11:18:52;96059.47;;;18.77;100.00
32933;BME280;19444;50.518;10.870;2022-09-13T11:22:31;96046.94;;;19.02;100.00
32933;BME280;19444;50.518;10.870;2022-09-13T11:29:32;96036.59;;;19.19;100.00
32933;BME280;19444;50.518;10.870;2022-09-13T11:36:16;96025.66;;;18.71;100.00
32933;BME280;19444;50.518;10.870;2022-09-13T11:39:37;96024.88;;;18.70;100.00
32933;BME280;19444;50.518;10.870;2022-09-13T11:42:41;96033.72;;;19.01;100.00
32933;BME280;19444;50.518;10.870;2022-09-13T11:46:06;96031.56;;;18.80;100.00
32933;BME280;19444;50.518;10.870;2022-09-13T11:50:02;96027.13;;;19.43;100.00
32933;BME280;19444;50.518;10.870;2022-09-13T11:53:39;96027.75;;;19.70;100.00
32933;BME280;19444;50.518;10.870;2022-09-13T11:56:47;96031.78;;;19.46;100.00
32933;BME280;19444;50.518;10.870;2022-09-13T11:59:56;96022.19;;;20.14;100.00
32933;BME280;19444;50.518;10.870;2022-09-13T12:03:26;96022.44;;;19.91;100.00
32933;BME280;19444;50.518;10.870;2022-09-13T12:06:46;96020.88;;;19.86;100.00
32933;BME280;19444;50.518;10.870;2022-09-13T12:09:55;96016.75;;;20.14;100.00
32933;BME280;19444;50.518;10.870;2022-09-13T12:12:56;96012.13;;;20.22;100.00
32933;BME280;19444;50.518;10.870;2022-09-13T12:16:01;96016.69;;;20.03;100.00
32933;BME280;19444;50.518;10.870;2022-09-13T12:22:25;96026.28;;;20.49;100.00
32933;BME280;19444;50.518;10.870;2022-09-13T12:25:41;96036.38;;;20.55;100.00
32933;BME280;19444;50.518;10.870;2022-09-13T12:28:55;96031.41;;;19.95;100.00
32933;BME280;19444;50.518;10.870;2022-09-13T12:31:59;96018.25;;;20.04;100.00
32933;BME280;19444;50.518;10.870;2022-09-13T12:35:16;96024.03;;;19.99;100.00
32933;BME280;19444;50.518;10.870;2022-09-13T12:38:54;96019.16;;;20.37;100.00
32933;BME280;19444;50.518;10.870;2022-09-13T12:46:40;96024.53;;;20.19;100.00
32933;BME280;19444;50.518;10.870;2022-09-13T12:50:05;96014.06;;;20.21;100.00
32933;BME280;19444;50.518;10.870;2022-09-13T12:57:56;96003.59;;;20.27;100.00
32933;BME280;19444;50.518;10.870;2022-09-13T13:01:21;96016.53;;;20.48;100.00
32933;BME280;19444;50.518;10.870;2022-09-13T13:04:33;96000.53;;;20.42;100.00
32933;BME280;19444;50.518;10.870;2022-09-13T13:07:34;95996.75;;;20.61;100.00
32933;BME280;19444;50.518;10.870;2022-09-13T13:10:35;95996.81;;;20.93;100.00
32933;BME280;19444;50.518;10.870;2022-09-13T13:13:42;95988.25;;;20.91;100.00
32933;BME280;19444;50.518;10.870;2022-09-13T13:16:40;95974.28;;;21.39;100.00
32933;BME280;19444;50.518;10.870;2022-09-13T13:19:37;95980.13;;;21.52;100.00
32933;BME280;19444;50.518;10.870;2022-09-13T13:26:10;95971.56;;;21.25;100.00
32933;BME280;19444;50.518;10.870;2022-09-13T13:29:27;95981.63;;;20.92;100.00
32933;BME280;19444;50.518;10.870;2022-09-13T13:32:25;95965.31;;;21.21;100.00
32933;BME280;19444;50.518;10.870;2022-09-13T13:35:30;95963.00;;;21.44;100.00
32933;BME280;19444;50.518;10.870;2022-09-13T13:38:39;95963.00;;;21.58;100.00
32933;BME280;19444;50.518;10.870;2022-09-13T13:42:02;95947.69;;;22.04;100.00
32933;BME280;19444;50.518;10.870;2022-09-13T13:45:17;95937.16;;;22.02;100.00
32933;BME280;19444;50.518;10.870;2022-09-13T13:48:14;95934.69;;;22.40;100.00
32933;BME280;19444;50.518;10.870;2022-09-13T13:51:26;95927.75;;;22.21;100.00
32933;BME280;19444;50.518;10.870;2022-09-13T14:01:03;95917.75;;;21.79;100.00
32933;BME280;19444;50.518;10.870;2022-09-13T14:22:23;95890.06;;;22.68;100.00
32933;BME280;19444;50.518;10.870;2022-09-13T14:25:23;95886.84;;;22.77;100.00
32933;BME280;19444;50.518;10.870;2022-09-13T14:28:22;95889.03;;;22.44;100.00
32933;BME280;19444;50.518;10.870;2022-09-13T14:31:19;95883.41;;;22.69;100.00
32933;BME280;19444;50.518;10.870;2022-09-13T14:34:29;95890.50;;;22.59;100.00
32933;BME280;19444;50.518;10.870;2022-09-13T14:37:33;95879.06;;;22.79;100.00
32933;BME280;19444;50.518;10.870;2022-09-13T14:40:31;95875.91;;;22.18;100.00
32933;BME280;19444;50.518;10.870;2022-09-13T14:43:29;95876.38;;;21.98;100.00
32933;BME280;19444;50.518;10.870;2022-09-13T14:46:33;95875.25;;;21.85;100.00
32933;BME280;19444;50.518;10.870;2022-09-13T14:49:39;95886.50;;;22.05;100.00
32933;BME280;19444;50.518;10.870;2022-09-13T14:52:56;95875.16;;;22.17;100.00
32933;BME280;19444;50.518;10.870;2022-09-13T14:56:17;95871.09;;;22.39;100.00
32933;BME280;19444;50.518;10.870;2022-09-13T14:59:36;95872.03;;;22.15;100.00
32933;BME280;19444;50.518;10.870;2022-09-13T15:02:38;95868.94;;;22.02;100.00
32933;BME280;19444;50.518;10.870;2022-09-13T15:05:36;95859.22;;;21.94;100.00
32933;BME280;19444;50.518;10.870;2022-09-13T15:11:34;95859.31;;;21.80;100.00
32933;BME280;19444;50.518;10.870;2022-09-13T15:14:35;95870.19;;;21.83;100.00
32933;BME280;19444;50.518;10.870;2022-09-13T15:17:57;95855.06;;;21.68;100.00
32933;BME280;19444;50.518;10.870;2022-09-13T15:20:57;95864.38;;;21.78;100.00
32933;BME280;19444;50.518;10.870;2022-09-13T15:23:55;95860.09;;;21.73;100.00
32933;BME280;19444;50.518;10.870;2022-09-13T15:27:13;95864.66;;;22.05;100.00
32933;BME280;19444;50.518;10.870;2022-09-13T15:30:38;95855.50;;;21.52;100.00
32933;BME280;19444;50.518;10.870;2022-09-13T15:33:37;95859.03;;;21.49;100.00
32933;BME280;19444;50.518;10.870;2022-09-13T15:36:34;95860.19;;;21.45;100.00
32933;BME280;19444;50.518;10.870;2022-09-13T15:39:49;95865.94;;;21.72;100.00
32933;BME280;19444;50.518;10.870;2022-09-13T15:42:50;95877.75;;;21.40;100.00
32933;BME280;19444;50.518;10.870;2022-09-13T15:45:47;95871.06;;;21.55;100.00
32933;BME280;19444;50.518;10.870;2022-09-13T15:49:24;95872.22;;;21.69;100.00
32933;BME280;19444;50.518;10.870;2022-09-13T15:52:14;95862.88;;;21.63;100.00
32933;BME280;19444;50.518;10.870;2022-09-13T15:55:11;95869.16;;;21.35;100.00
32933;BME280;19444;50.518;10.870;2022-09-13T15:58:09;95861.75;;;21.49;100.00
32933;BME280;19444;50.518;10.870;2022-09-13T16:01:06;95861.78;;;21.28;100.00
32933;BME280;19444;50.518;10.870;2022-09-13T16:04:03;95860.19;;;21.45;100.00
32933;BME280;19444;50.518;10.870;2022-09-13T16:07:00;95851.69;;;21.04;100.00
32933;BME280;19444;50.518;10.870;2022-09-13T16:09:57;95861.38;;;21.01;100.00
32933;BME280;19444;50.518;10.870;2022-09-13T16:12:54;95857.91;;;21.04;100.00
32933;BME280;19444;50.518;10.870;2022-09-13T16:15:51;95856.34;;;21.03;100.00
32933;BME280;19444;50.518;10.870;2022-09-13T16:18:53;95858.69;;;20.94;100.00
32933;BME280;19444;50.518;10.870;2022-09-13T16:21:50;95855.56;;;20.81;100.00
32933;BME280;19444;50.518;10.870;2022-09-13T16:24:47;95855.16;;;20.83;100.00
32933;BME280;19444;50.518;10.870;2022-09-13T16:27:44;95857.53;;;20.70;100.00
32933;BME280;19444;50.518;10.870;2022-09-13T16:30:41;95859.06;;;20.67;100.00
32933;BME280;19444;50.518;10.870;2022-09-13T16:33:38;95853.22;;;20.62;100.00
32933;BME280;19444;50.518;10.870;2022-09-13T16:36:35;95851.28;;;20.62;100.00
32933;BME280;19444;50.518;10.870;2022-09-13T16:39:32;95846.63;;;20.52;100.00
32933;BME280;19444;50.518;10.870;2022-09-13T16:42:29;95847.72;;;20.33;100.00
32933;BME280;19444;50.518;10.870;2022-09-13T16:45:26;95843.84;;;20.31;100.00
32933;BME280;19444;50.518;10.870;2022-09-13T16:48:23;95839.91;;;20.03;100.00
32933;BME280;19444;50.518;10.870;2022-09-13T16:51:20;95839.41;;;19.83;100.00
32933;BME280;19444;50.518;10.870;2022-09-13T16:54:17;95843.53;;;19.49;100.00
32933;BME280;19444;50.518;10.870;2022-09-13T16:57:14;95857.31;;;19.19;100.00
32933;BME280;19444;50.518;10.870;2022-09-13T17:00:12;95851.00;;;19.00;100.00
32933;BME280;19444;50.518;10.870;2022-09-13T17:03:09;95854.53;;;19.08;100.00
32933;BME280;19444;50.518;10.870;2022-09-13T17:06:11;95854.03;;;18.92;100.00
32933;BME280;19444;50.518;10.870;2022-09-13T17:09:08;95856.59;;;19.25;100.00
32933;BME280;19444;50.518;10.870;2022-09-13T17:12:12;95869.44;;;19.32;100.00
32933;BME280;19444;50.518;10.870;2022-09-13T17:15:09;95853.88;;;19.29;100.00
32933;BME280;19444;50.518;10.870;2022-09-13T17:18:07;95854.41;;;18.87;100.00
32933;BME280;19444;50.518;10.870;2022-09-13T17:21:04;95864.75;;;18.74;100.00
32933;BME280;19444;50.518;10.870;2022-09-13T17:24:02;95858.38;;;18.56;100.00
32933;BME280;19444;50.518;10.870;2022-09-13T17:26:59;95854.63;;;18.27;100.00
32933;BME280;19444;50.518;10.870;2022-09-13T17:29:56;95853.22;;;18.03;100.00
32933;BME280;19444;50.518;10.870;2022-09-13T17:32:53;95852.28;;;17.88;100.00
32933;BME280;19444;50.518;10.870;2022-09-13T17:36:19;95853.25;;;17.73;100.00
32933;BME280;19444;50.518;10.870;2022-09-13T17:39:17;95850.72;;;17.87;100.00
32933;BME280;19444;50.518;10.870;2022-09-13T17:42:14;95845.72;;;17.59;100.00
32933;BME280;19444;50.518;10.870;2022-09-13T17:45:16;95847.16;;;17.83;100.00